sensor_id;sensor_type;location;lat;lon;timestamp;P1;durP1;ratioP1;P2;durP2;ratioP2
9052;SDS011;4561;47.450;7.516;2024-02-21T00:00:16;37.57;;;25.43;;
9052;SDS011;4561;47.450;7.516;2024-02-21T00:03:37;37.47;;;24.63;;
9052;SDS011;4561;47.450;7.516;2024-02-21T00:06:58;14.23;;;7.73;;
9052;SDS011;4561;47.450;7.516;2024-02-21T00:10:19;10.13;;;6.07;;
9052;SDS011;4561;47.450;7.516;2024-02-21T00:13:39;5.97;;;3.10;;
9052;SDS011;4561;47.450;7.516;2024-02-21T00:16:59;9.00;;;3.87;;
9052;SDS011;4561;47.450;7.516;2024-02-21T00:20:20;9.20;;;3.83;;
9052;SDS011;4561;47.450;7.516;2024-02-21T00:23:40;8.00;;;3.40;;
9052;SDS011;4561;47.450;7.516;2024-02-21T00:27:01;6.20;;;3.63;;
9052;SDS011;4561;47.450;7.516;2024-02-21T00:30:23;10.33;;;3.97;;
9052;SDS011;4561;47.450;7.516;2024-02-21T00:33:44;6.80;;;3.40;;
9052;SDS011;4561;47.450;7.516;2024-02-21T00:37:04;6.83;;;3.10;;
9052;SDS011;4561;47.450;7.516;2024-02-21T00:40:25;8.53;;;2.97;;
9052;SDS011;4561;47.450;7.516;2024-02-21T00:43:45;9.07;;;3.27;;
9052;SDS011;4561;47.450;7.516;2024-02-21T00:47:05;9.67;;;3.57;;
9052;SDS011;4561;47.450;7.516;2024-02-21T00:50:26;6.60;;;2.60;;
9052;SDS011;4561;47.450;7.516;2024-02-21T00:53:46;7.83;;;2.90;;
9052;SDS011;4561;47.450;7.516;2024-02-21T00:57:09;5.87;;;2.83;;
9052;SDS011;4561;47.450;7.516;2024-02-21T01:00:29;8.67;;;2.90;;
9052;SDS011;4561;47.450;7.516;2024-02-21T01:03:52;6.77;;;2.70;;
9052;SDS011;4561;47.450;7.516;2024-02-21T01:07:15;7.67;;;2.93;;
9052;SDS011;4561;47.450;7.516;2024-02-21T01:10:36;6.50;;;3.27;;
9052;SDS011;4561;47.450;7.516;2024-02-21T01:13:56;9.27;;;2.60;;
9052;SDS011;4561;47.450;7.516;2024-02-21T01:17:16;5.87;;;2.60;;
9052;SDS011;4561;47.450;7.516;2024-02-21T01:20:37;8.03;;;3.43;;
9052;SDS011;4561;47.450;7.516;2024-02-21T01:23:57;8.37;;;3.33;;
9052;SDS011;4561;47.450;7.516;2024-02-21T01:27:17;9.83;;;3.90;;
9052;SDS011;4561;47.450;7.516;2024-02-21T01:30:38;7.47;;;3.07;;
9052;SDS011;4561;47.450;7.516;2024-02-21T01:33:58;8.03;;;3.00;;
9052;SDS011;4561;47.450;7.516;2024-02-21T01:37:18;6.80;;;3.93;;
9052;SDS011;4561;47.450;7.516;2024-02-21T01:40:39;9.87;;;3.90;;
9052;SDS011;4561;47.450;7.516;2024-02-21T01:43:59;7.17;;;3.47;;
9052;SDS011;4561;47.450;7.516;2024-02-21T01:47:19;8.20;;;3.23;;
9052;SDS011;4561;47.450;7.516;2024-02-21T01:50:40;8.27;;;3.70;;
9052;SDS011;4561;47.450;7.516;2024-02-21T01:54:03;7.00;;;3.40;;
9052;SDS011;4561;47.450;7.516;2024-02-21T01:57:23;8.00;;;3.43;;
9052;SDS011;4561;47.450;7.516;2024-02-21T02:00:46;7.43;;;3.40;;
9052;SDS011;4561;47.450;7.516;2024-02-21T02:04:09;9.03;;;3.50;;
9052;SDS011;4561;47.450;7.516;2024-02-21T02:07:30;8.10;;;3.63;;
9052;SDS011;4561;47.450;7.516;2024-02-21T02:10:52;6.57;;;2.63;;
9052;SDS011;4561;47.450;7.516;2024-02-21T02:14:13;10.53;;;3.00;;
9052;SDS011;4561;47.450;7.516;2024-02-21T02:17:35;11.50;;;3.30;;
9052;SDS011;4561;47.450;7.516;2024-02-21T02:20:56;7.80;;;2.80;;
9052;SDS011;4561;47.450;7.516;2024-02-21T02:24:21;8.37;;;2.97;;
9052;SDS011;4561;47.450;7.516;2024-02-21T02:27:42;8.63;;;2.77;;
9052;SDS011;4561;47.450;7.516;2024-02-21T02:31:11;8.03;;;2.70;;
9052;SDS011;4561;47.450;7.516;2024-02-21T02:34:31;7.60;;;2.70;;
9052;SDS011;4561;47.450;7.516;2024-02-21T02:37:52;8.70;;;2.80;;
9052;SDS011;4561;47.450;7.516;2024-02-21T02:41:12;6.73;;;2.73;;
9052;SDS011;4561;47.450;7.516;2024-02-21T02:44:33;6.70;;;3.40;;
9052;SDS011;4561;47.450;7.516;2024-02-21T02:47:53;7.60;;;3.03;;
9052;SDS011;4561;47.450;7.516;2024-02-21T02:51:22;6.17;;;2.17;;
9052;SDS011;4561;47.450;7.516;2024-02-21T02:54:43;9.90;;;3.27;;
9052;SDS011;4561;47.450;7.516;2024-02-21T02:58:11;6.23;;;2.70;;
9052;SDS011;4561;47.450;7.516;2024-02-21T03:01:35;7.87;;;3.23;;
9052;SDS011;4561;47.450;7.516;2024-02-21T03:04:59;5.47;;;2.40;;
9052;SDS011;4561;47.450;7.516;2024-02-21T03:08:20;8.43;;;3.17;;
9052;SDS011;4561;47.450;7.516;2024-02-21T03:11:40;7.93;;;2.90;;
9052;SDS011;4561;47.450;7.516;2024-02-21T03:15:03;6.10;;;2.83;;
9052;SDS011;4561;47.450;7.516;2024-02-21T03:18:29;5.77;;;2.83;;
9052;SDS011;4561;47.450;7.516;2024-02-21T03:21:49;8.77;;;3.07;;
9052;SDS011;4561;47.450;7.516;2024-02-21T03:25:12;5.80;;;2.70;;
9052;SDS011;4561;47.450;7.516;2024-02-21T03:28:34;7.20;;;2.93;;
9052;SDS011;4561;47.450;7.516;2024-02-21T03:31:54;8.20;;;3.07;;
9052;SDS011;4561;47.450;7.516;2024-02-21T03:35:17;6.40;;;2.73;;
9052;SDS011;4561;47.450;7.516;2024-02-21T03:38:37;6.27;;;2.80;;
9052;SDS011;4561;47.450;7.516;2024-02-21T03:41:58;9.57;;;3.00;;
9052;SDS011;4561;47.450;7.516;2024-02-21T03:45:20;8.90;;;3.50;;
9052;SDS011;4561;47.450;7.516;2024-02-21T03:48:41;5.13;;;3.37;;
9052;SDS011;4561;47.450;7.516;2024-02-21T03:52:01;5.10;;;3.00;;
9052;SDS011;4561;47.450;7.516;2024-02-21T03:55:27;6.67;;;3.30;;
9052;SDS011;4561;47.450;7.516;2024-02-21T03:58:50;7.13;;;3.07;;
9052;SDS011;4561;47.450;7.516;2024-02-21T04:02:13;7.70;;;3.23;;
9052;SDS011;4561;47.450;7.516;2024-02-21T04:05:33;7.43;;;3.40;;
9052;SDS011;4561;47.450;7.516;2024-02-21T04:08:53;5.80;;;3.80;;
9052;SDS011;4561;47.450;7.516;2024-02-21T04:12:14;6.03;;;3.50;;
9052;SDS011;4561;47.450;7.516;2024-02-21T04:15:34;9.00;;;3.47;;
9052;SDS011;4561;47.450;7.516;2024-02-21T04:18:55;9.33;;;3.70;;
9052;SDS011;4561;47.450;7.516;2024-02-21T04:22:18;10.37;;;4.00;;
9052;SDS011;4561;47.450;7.516;2024-02-21T04:25:41;8.40;;;3.60;;
9052;SDS011;4561;47.450;7.516;2024-02-21T04:29:04;8.43;;;3.60;;
9052;SDS011;4561;47.450;7.516;2024-02-21T04:32:26;7.30;;;3.57;;
9052;SDS011;4561;47.450;7.516;2024-02-21T04:35:47;5.47;;;2.90;;
9052;SDS011;4561;47.450;7.516;2024-02-21T04:39:07;6.93;;;3.00;;
9052;SDS011;4561;47.450;7.516;2024-02-21T04:42:28;8.87;;;2.87;;
9052;SDS011;4561;47.450;7.516;2024-02-21T04:45:48;5.53;;;2.87;;
9052;SDS011;4561;47.450;7.516;2024-02-21T04:49:09;5.97;;;2.87;;
9052;SDS011;4561;47.450;7.516;2024-02-21T04:52:29;6.83;;;3.10;;
9052;SDS011;4561;47.450;7.516;2024-02-21T04:55:49;8.60;;;3.47;;
9052;SDS011;4561;47.450;7.516;2024-02-21T04:59:12;8.37;;;3.30;;
9052;SDS011;4561;47.450;7.516;2024-02-21T05:02:32;6.60;;;3.30;;
9052;SDS011;4561;47.450;7.516;2024-02-21T05:05:55;8.40;;;3.20;;
9052;SDS011;4561;47.450;7.516;2024-02-21T05:09:15;7.93;;;3.30;;
9052;SDS011;4561;47.450;7.516;2024-02-21T05:12:36;7.53;;;3.63;;
9052;SDS011;4561;47.450;7.516;2024-02-21T05:16:01;9.07;;;4.27;;
9052;SDS011;4561;47.450;7.516;2024-02-21T05:19:22;7.10;;;3.57;;
9052;SDS011;4561;47.450;7.516;2024-02-21T05:22:42;6.57;;;2.80;;
9052;SDS011;4561;47.450;7.516;2024-02-21T05:26:03;7.63;;;3.97;;
9052;SDS011;4561;47.450;7.516;2024-02-21T05:29:23;7.43;;;3.30;;
9052;SDS011;4561;47.450;7.516;2024-02-21T05:32:46;6.93;;;4.00;;
9052;SDS011;4561;47.450;7.516;2024-02-21T05:36:06;8.30;;;4.00;;
9052;SDS011;4561;47.450;7.516;2024-02-21T05:39:27;7.33;;;3.57;;
9052;SDS011;4561;47.450;7.516;2024-02-21T05:42:49;9.00;;;3.60;;
9052;SDS011;4561;47.450;7.516;2024-02-21T05:46:11;6.30;;;3.77;;
9052;SDS011;4561;47.450;7.516;2024-02-21T05:49:33;10.83;;;4.17;;
9052;SDS011;4561;47.450;7.516;2024-02-21T05:52:55;11.97;;;4.10;;
9052;SDS011;4561;47.450;7.516;2024-02-21T05:56:18;7.83;;;3.43;;
9052;SDS011;4561;47.450;7.516;2024-02-21T05:59:39;5.40;;;3.07;;
9052;SDS011;4561;47.450;7.516;2024-02-21T06:03:04;6.63;;;3.20;;
9052;SDS011;4561;47.450;7.516;2024-02-21T06:06:24;6.57;;;3.20;;
9052;SDS011;4561;47.450;7.516;2024-02-21T06:09:45;7.97;;;3.40;;
9052;SDS011;4561;47.450;7.516;2024-02-21T06:13:05;7.73;;;3.40;;
9052;SDS011;4561;47.450;7.516;2024-02-21T06:16:29;9.97;;;3.73;;
9052;SDS011;4561;47.450;7.516;2024-02-21T06:19:49;6.40;;;3.10;;
9052;SDS011;4561;47.450;7.516;2024-02-21T06:23:10;11.00;;;3.50;;
9052;SDS011;4561;47.450;7.516;2024-02-21T06:26:31;13.00;;;7.90;;
9052;SDS011;4561;47.450;7.516;2024-02-21T06:29:52;12.00;;;6.50;;
9052;SDS011;4561;47.450;7.516;2024-02-21T06:33:15;9.63;;;5.33;;
9052;SDS011;4561;47.450;7.516;2024-02-21T06:36:35;9.73;;;5.70;;
9052;SDS011;4561;47.450;7.516;2024-02-21T06:39:55;14.27;;;6.00;;
9052;SDS011;4561;47.450;7.516;2024-02-21T06:43:19;8.77;;;4.87;;
9052;SDS011;4561;47.450;7.516;2024-02-21T06:46:40;10.47;;;5.73;;
9052;SDS011;4561;47.450;7.516;2024-02-21T06:50:00;10.83;;;5.83;;
9052;SDS011;4561;47.450;7.516;2024-02-21T06:53:21;8.30;;;5.40;;
9052;SDS011;4561;47.450;7.516;2024-02-21T06:56:41;8.03;;;5.53;;
9052;SDS011;4561;47.450;7.516;2024-02-21T07:00:01;8.87;;;5.90;;
9052;SDS011;4561;47.450;7.516;2024-02-21T07:03:22;17.27;;;14.20;;
9052;SDS011;4561;47.450;7.516;2024-02-21T07:06:45;10.50;;;6.00;;
9052;SDS011;4561;47.450;7.516;2024-02-21T07:10:10;10.30;;;5.07;;
9052;SDS011;4561;47.450;7.516;2024-02-21T07:13:31;9.23;;;4.57;;
9052;SDS011;4561;47.450;7.516;2024-02-21T07:16:52;10.87;;;6.87;;
9052;SDS011;4561;47.450;7.516;2024-02-21T07:20:13;5.73;;;3.90;;
9052;SDS011;4561;47.450;7.516;2024-02-21T07:23:33;6.53;;;3.53;;
9052;SDS011;4561;47.450;7.516;2024-02-21T07:26:54;4.97;;;2.53;;
9052;SDS011;4561;47.450;7.516;2024-02-21T07:30:16;8.80;;;6.37;;
9052;SDS011;4561;47.450;7.516;2024-02-21T07:33:36;10.83;;;5.83;;
9052;SDS011;4561;47.450;7.516;2024-02-21T07:36:57;10.07;;;5.07;;
9052;SDS011;4561;47.450;7.516;2024-02-21T07:40:17;8.43;;;5.33;;
9052;SDS011;4561;47.450;7.516;2024-02-21T07:43:42;6.63;;;4.50;;
9052;SDS011;4561;47.450;7.516;2024-02-21T07:47:02;6.17;;;3.90;;
9052;SDS011;4561;47.450;7.516;2024-02-21T07:50:23;7.60;;;3.20;;
9052;SDS011;4561;47.450;7.516;2024-02-21T07:53:44;9.63;;;4.10;;
9052;SDS011;4561;47.450;7.516;2024-02-21T07:57:05;9.63;;;5.27;;
9052;SDS011;4561;47.450;7.516;2024-02-21T08:00:25;7.67;;;5.30;;
9052;SDS011;4561;47.450;7.516;2024-02-21T08:03:46;7.10;;;4.73;;
9052;SDS011;4561;47.450;7.516;2024-02-21T08:07:06;6.20;;;4.63;;
9052;SDS011;4561;47.450;7.516;2024-02-21T08:10:27;9.03;;;5.20;;
9052;SDS011;4561;47.450;7.516;2024-02-21T08:13:47;12.47;;;7.63;;
9052;SDS011;4561;47.450;7.516;2024-02-21T08:17:08;11.50;;;8.60;;
9052;SDS011;4561;47.450;7.516;2024-02-21T08:20:28;8.97;;;7.10;;
9052;SDS011;4561;47.450;7.516;2024-02-21T08:23:48;10.33;;;7.93;;
9052;SDS011;4561;47.450;7.516;2024-02-21T08:27:11;10.80;;;6.37;;
9052;SDS011;4561;47.450;7.516;2024-02-21T08:30:31;6.43;;;4.10;;
9052;SDS011;4561;47.450;7.516;2024-02-21T08:33:52;6.57;;;3.60;;
9052;SDS011;4561;47.450;7.516;2024-02-21T08:37:12;9.53;;;4.67;;
9052;SDS011;4561;47.450;7.516;2024-02-21T08:40:38;11.37;;;4.57;;
9052;SDS011;4561;47.450;7.516;2024-02-21T08:43:59;7.93;;;4.53;;
9052;SDS011;4561;47.450;7.516;2024-02-21T08:47:19;9.07;;;4.30;;
9052;SDS011;4561;47.450;7.516;2024-02-21T08:50:39;6.90;;;3.90;;
9052;SDS011;4561;47.450;7.516;2024-02-21T08:54:00;8.07;;;3.67;;
9052;SDS011;4561;47.450;7.516;2024-02-21T08:57:23;5.27;;;3.67;;
9052;SDS011;4561;47.450;7.516;2024-02-21T09:00:45;6.67;;;4.17;;
9052;SDS011;4561;47.450;7.516;2024-02-21T09:04:05;6.97;;;5.10;;
9052;SDS011;4561;47.450;7.516;2024-02-21T09:07:28;8.57;;;5.57;;
9052;SDS011;4561;47.450;7.516;2024-02-21T09:10:49;6.20;;;3.73;;
9052;SDS011;4561;47.450;7.516;2024-02-21T09:14:09;6.53;;;3.33;;
9052;SDS011;4561;47.450;7.516;2024-02-21T09:17:29;7.27;;;3.57;;
9052;SDS011;4561;47.450;7.516;2024-02-21T09:20:50;4.77;;;3.10;;
9052;SDS011;4561;47.450;7.516;2024-02-21T09:24:12;6.00;;;3.47;;
9052;SDS011;4561;47.450;7.516;2024-02-21T09:27:35;6.13;;;3.60;;
9052;SDS011;4561;47.450;7.516;2024-02-21T09:30:56;7.00;;;3.37;;
9052;SDS011;4561;47.450;7.516;2024-02-21T09:34:16;7.83;;;3.60;;
9052;SDS011;4561;47.450;7.516;2024-02-21T09:37:36;7.37;;;3.53;;
9052;SDS011;4561;47.450;7.516;2024-02-21T09:44:24;7.10;;;4.97;;
9052;SDS011;4561;47.450;7.516;2024-02-21T09:51:17;5.50;;;3.20;;
9052;SDS011;4561;47.450;7.516;2024-02-21T09:54:41;5.77;;;3.17;;
9052;SDS011;4561;47.450;7.516;2024-02-21T09:58:05;7.70;;;4.00;;
9052;SDS011;4561;47.450;7.516;2024-02-21T10:01:25;7.03;;;3.57;;
9052;SDS011;4561;47.450;7.516;2024-02-21T10:04:45;7.13;;;3.67;;
9052;SDS011;4561;47.450;7.516;2024-02-21T10:08:06;6.40;;;3.30;;
9052;SDS011;4561;47.450;7.516;2024-02-21T10:11:28;4.57;;;3.70;;
9052;SDS011;4561;47.450;7.516;2024-02-21T10:14:51;5.57;;;3.50;;
9052;SDS011;4561;47.450;7.516;2024-02-21T10:18:20;6.83;;;3.27;;
9052;SDS011;4561;47.450;7.516;2024-02-21T10:21:42;4.90;;;2.63;;
9052;SDS011;4561;47.450;7.516;2024-02-21T10:25:09;5.13;;;3.07;;
9052;SDS011;4561;47.450;7.516;2024-02-21T10:28:34;8.50;;;3.80;;
9052;SDS011;4561;47.450;7.516;2024-02-21T10:35:29;5.50;;;2.90;;
9052;SDS011;4561;47.450;7.516;2024-02-21T10:38:53;4.63;;;2.80;;
9052;SDS011;4561;47.450;7.516;2024-02-21T10:42:14;6.00;;;3.00;;
9052;SDS011;4561;47.450;7.516;2024-02-21T10:45:37;6.93;;;2.63;;
9052;SDS011;4561;47.450;7.516;2024-02-21T10:49:07;7.73;;;3.13;;
9052;SDS011;4561;47.450;7.516;2024-02-21T10:52:41;7.73;;;2.90;;
9052;SDS011;4561;47.450;7.516;2024-02-21T10:56:18;5.50;;;3.00;;
9052;SDS011;4561;47.450;7.516;2024-02-21T10:59:45;5.87;;;2.50;;
9052;SDS011;4561;47.450;7.516;2024-02-21T11:03:07;5.17;;;2.70;;
9052;SDS011;4561;47.450;7.516;2024-02-21T11:06:29;3.33;;;2.10;;
9052;SDS011;4561;47.450;7.516;2024-02-21T11:09:52;3.70;;;2.27;;
9052;SDS011;4561;47.450;7.516;2024-02-21T11:13:13;6.17;;;3.00;;
9052;SDS011;4561;47.450;7.516;2024-02-21T11:16:37;5.40;;;2.50;;
9052;SDS011;4561;47.450;7.516;2024-02-21T11:20:10;7.50;;;2.67;;
9052;SDS011;4561;47.450;7.516;2024-02-21T11:23:33;7.57;;;3.00;;
9052;SDS011;4561;47.450;7.516;2024-02-21T11:26:54;7.30;;;2.87;;
9052;SDS011;4561;47.450;7.516;2024-02-21T11:30:14;4.50;;;2.43;;
9052;SDS011;4561;47.450;7.516;2024-02-21T11:33:39;4.30;;;2.57;;
9052;SDS011;4561;47.450;7.516;2024-02-21T11:36:59;6.57;;;2.80;;
9052;SDS011;4561;47.450;7.516;2024-02-21T11:40:23;6.20;;;2.40;;
9052;SDS011;4561;47.450;7.516;2024-02-21T11:43:43;5.63;;;2.40;;
9052;SDS011;4561;47.450;7.516;2024-02-21T11:47:08;4.23;;;2.30;;
9052;SDS011;4561;47.450;7.516;2024-02-21T11:50:31;3.30;;;2.10;;
9052;SDS011;4561;47.450;7.516;2024-02-21T11:53:52;4.13;;;1.70;;
9052;SDS011;4561;47.450;7.516;2024-02-21T11:57:15;2.57;;;1.80;;
9052;SDS011;4561;47.450;7.516;2024-02-21T12:00:35;3.30;;;1.53;;
9052;SDS011;4561;47.450;7.516;2024-02-21T12:03:55;4.00;;;1.60;;
9052;SDS011;4561;47.450;7.516;2024-02-21T12:07:16;1.33;;;1.20;;
9052;SDS011;4561;47.450;7.516;2024-02-21T12:10:37;2.03;;;1.20;;
9052;SDS011;4561;47.450;7.516;2024-02-21T12:14:01;3.40;;;1.90;;
9052;SDS011;4561;47.450;7.516;2024-02-21T12:17:25;3.50;;;1.63;;
9052;SDS011;4561;47.450;7.516;2024-02-21T12:20:47;4.57;;;1.60;;
9052;SDS011;4561;47.450;7.516;2024-02-21T12:24:26;3.40;;;1.57;;
9052;SDS011;4561;47.450;7.516;2024-02-21T12:27:50;3.20;;;1.70;;
9052;SDS011;4561;47.450;7.516;2024-02-21T12:31:11;4.73;;;2.27;;
9052;SDS011;4561;47.450;7.516;2024-02-21T12:34:31;4.27;;;1.93;;
9052;SDS011;4561;47.450;7.516;2024-02-21T12:37:52;3.27;;;1.80;;
9052;SDS011;4561;47.450;7.516;2024-02-21T12:41:12;3.40;;;1.70;;
9052;SDS011;4561;47.450;7.516;2024-02-21T12:44:33;3.10;;;1.70;;
9052;SDS011;4561;47.450;7.516;2024-02-21T12:47:54;4.43;;;1.53;;
9052;SDS011;4561;47.450;7.516;2024-02-21T12:51:16;3.40;;;1.67;;
9052;SDS011;4561;47.450;7.516;2024-02-21T12:54:40;2.97;;;1.63;;
9052;SDS011;4561;47.450;7.516;2024-02-21T12:58:06;2.90;;;1.60;;
9052;SDS011;4561;47.450;7.516;2024-02-21T13:01:29;2.93;;;1.47;;
9052;SDS011;4561;47.450;7.516;2024-02-21T13:04:49;3.00;;;1.47;;
9052;SDS011;4561;47.450;7.516;2024-02-21T13:08:14;4.37;;;1.83;;
9052;SDS011;4561;47.450;7.516;2024-02-21T13:11:34;2.33;;;1.53;;
9052;SDS011;4561;47.450;7.516;2024-02-21T13:14:58;2.40;;;1.63;;
9052;SDS011;4561;47.450;7.516;2024-02-21T13:18:21;3.33;;;1.80;;
9052;SDS011;4561;47.450;7.516;2024-02-21T13:21:41;2.47;;;1.40;;
9052;SDS011;4561;47.450;7.516;2024-02-21T13:25:02;1.43;;;1.00;;
9052;SDS011;4561;47.450;7.516;2024-02-21T13:28:23;2.87;;;1.20;;
9052;SDS011;4561;47.450;7.516;2024-02-21T13:31:46;3.40;;;1.10;;
9052;SDS011;4561;47.450;7.516;2024-02-21T13:35:07;3.93;;;1.30;;
9052;SDS011;4561;47.450;7.516;2024-02-21T13:38:31;4.33;;;1.50;;
9052;SDS011;4561;47.450;7.516;2024-02-21T13:41:54;3.63;;;1.27;;
9052;SDS011;4561;47.450;7.516;2024-02-21T13:45:14;7.53;;;1.70;;
9052;SDS011;4561;47.450;7.516;2024-02-21T13:48:35;2.83;;;1.43;;
9052;SDS011;4561;47.450;7.516;2024-02-21T13:51:55;2.07;;;1.47;;
9052;SDS011;4561;47.450;7.516;2024-02-21T13:55:16;2.27;;;1.33;;
9052;SDS011;4561;47.450;7.516;2024-02-21T13:58:37;1.80;;;1.37;;
9052;SDS011;4561;47.450;7.516;2024-02-21T14:01:58;3.57;;;1.50;;
9052;SDS011;4561;47.450;7.516;2024-02-21T14:05:19;1.97;;;1.30;;
9052;SDS011;4561;47.450;7.516;2024-02-21T14:08:41;2.60;;;1.30;;
9052;SDS011;4561;47.450;7.516;2024-02-21T14:12:07;4.67;;;1.23;;
9052;SDS011;4561;47.450;7.516;2024-02-21T14:15:33;4.87;;;1.60;;
9052;SDS011;4561;47.450;7.516;2024-02-21T14:18:53;2.93;;;1.43;;
9052;SDS011;4561;47.450;7.516;2024-02-21T14:22:18;3.17;;;1.43;;
9052;SDS011;4561;47.450;7.516;2024-02-21T14:25:39;3.70;;;2.10;;
9052;SDS011;4561;47.450;7.516;2024-02-21T14:29:01;4.77;;;2.03;;
9052;SDS011;4561;47.450;7.516;2024-02-21T14:32:23;5.10;;;2.00;;
9052;SDS011;4561;47.450;7.516;2024-02-21T14:35:45;5.90;;;2.00;;
9052;SDS011;4561;47.450;7.516;2024-02-21T14:39:09;3.67;;;1.70;;
9052;SDS011;4561;47.450;7.516;2024-02-21T14:42:29;4.00;;;2.33;;
9052;SDS011;4561;47.450;7.516;2024-02-21T14:45:50;4.27;;;2.00;;
9052;SDS011;4561;47.450;7.516;2024-02-21T14:49:10;4.63;;;1.90;;
9052;SDS011;4561;47.450;7.516;2024-02-21T14:52:31;6.20;;;2.27;;
9052;SDS011;4561;47.450;7.516;2024-02-21T14:55:53;6.10;;;2.10;;
9052;SDS011;4561;47.450;7.516;2024-02-21T14:59:13;4.63;;;1.97;;
9052;SDS011;4561;47.450;7.516;2024-02-21T15:02:33;5.83;;;2.00;;
9052;SDS011;4561;47.450;7.516;2024-02-21T15:05:55;6.73;;;2.50;;
9052;SDS011;4561;47.450;7.516;2024-02-21T15:09:15;5.60;;;2.27;;
9052;SDS011;4561;47.450;7.516;2024-02-21T15:12:35;4.23;;;1.97;;
9052;SDS011;4561;47.450;7.516;2024-02-21T15:15:56;5.67;;;2.60;;
9052;SDS011;4561;47.450;7.516;2024-02-21T15:19:16;3.17;;;1.93;;
9052;SDS011;4561;47.450;7.516;2024-02-21T15:22:37;3.20;;;2.10;;
9052;SDS011;4561;47.450;7.516;2024-02-21T15:25:57;3.77;;;2.30;;
9052;SDS011;4561;47.450;7.516;2024-02-21T15:29:19;2.87;;;1.97;;
9052;SDS011;4561;47.450;7.516;2024-02-21T15:32:42;9.03;;;2.23;;
9052;SDS011;4561;47.450;7.516;2024-02-21T15:36:05;4.93;;;2.67;;
9052;SDS011;4561;47.450;7.516;2024-02-21T15:39:28;5.90;;;2.53;;
9052;SDS011;4561;47.450;7.516;2024-02-21T15:42:51;6.67;;;2.30;;
9052;SDS011;4561;47.450;7.516;2024-02-21T15:46:12;7.50;;;2.30;;
9052;SDS011;4561;47.450;7.516;2024-02-21T15:49:33;5.97;;;2.30;;
9052;SDS011;4561;47.450;7.516;2024-02-21T15:52:54;5.13;;;2.20;;
9052;SDS011;4561;47.450;7.516;2024-02-21T15:56:15;4.13;;;1.93;;
9052;SDS011;4561;47.450;7.516;2024-02-21T15:59:36;5.60;;;2.10;;
9052;SDS011;4561;47.450;7.516;2024-02-21T16:03:02;3.33;;;2.37;;
9052;SDS011;4561;47.450;7.516;2024-02-21T16:06:23;3.63;;;2.50;;
9052;SDS011;4561;47.450;7.516;2024-02-21T16:09:45;7.87;;;2.80;;
9052;SDS011;4561;47.450;7.516;2024-02-21T16:13:07;6.10;;;2.47;;
9052;SDS011;4561;47.450;7.516;2024-02-21T16:16:29;7.67;;;2.67;;
9052;SDS011;4561;47.450;7.516;2024-02-21T16:19:50;10.17;;;6.13;;
9052;SDS011;4561;47.450;7.516;2024-02-21T16:23:10;6.00;;;2.13;;
9052;SDS011;4561;47.450;7.516;2024-02-21T16:26:34;5.30;;;1.90;;
9052;SDS011;4561;47.450;7.516;2024-02-21T16:29:57;6.33;;;1.80;;
9052;SDS011;4561;47.450;7.516;2024-02-21T16:33:18;3.67;;;1.40;;
9052;SDS011;4561;47.450;7.516;2024-02-21T16:36:38;24.30;;;16.40;;
9052;SDS011;4561;47.450;7.516;2024-02-21T16:39:59;14.97;;;11.77;;
9052;SDS011;4561;47.450;7.516;2024-02-21T16:43:19;8.40;;;6.80;;
9052;SDS011;4561;47.450;7.516;2024-02-21T16:46:40;4.07;;;3.20;;
9052;SDS011;4561;47.450;7.516;2024-02-21T16:50:02;3.13;;;1.80;;
9052;SDS011;4561;47.450;7.516;2024-02-21T16:53:25;1.77;;;1.23;;
9052;SDS011;4561;47.450;7.516;2024-02-21T16:56:47;7.00;;;5.50;;
9052;SDS011;4561;47.450;7.516;2024-02-21T17:00:08;3.83;;;1.60;;
9052;SDS011;4561;47.450;7.516;2024-02-21T17:03:34;1.47;;;0.93;;
9052;SDS011;4561;47.450;7.516;2024-02-21T17:06:57;2.80;;;1.20;;
9052;SDS011;4561;47.450;7.516;2024-02-21T17:10:17;3.10;;;1.50;;
9052;SDS011;4561;47.450;7.516;2024-02-21T17:13:38;1.83;;;1.30;;
9052;SDS011;4561;47.450;7.516;2024-02-21T17:16:59;2.97;;;1.70;;
9052;SDS011;4561;47.450;7.516;2024-02-21T17:20:19;4.97;;;4.00;;
9052;SDS011;4561;47.450;7.516;2024-02-21T17:23:39;4.33;;;3.30;;
9052;SDS011;4561;47.450;7.516;2024-02-21T17:27:00;3.17;;;2.50;;
9052;SDS011;4561;47.450;7.516;2024-02-21T17:30:20;3.90;;;2.40;;
9052;SDS011;4561;47.450;7.516;2024-02-21T17:33:41;2.67;;;1.93;;
9052;SDS011;4561;47.450;7.516;2024-02-21T17:37:04;5.60;;;2.67;;
9052;SDS011;4561;47.450;7.516;2024-02-21T17:40:25;2.80;;;1.93;;
9052;SDS011;4561;47.450;7.516;2024-02-21T17:43:45;4.57;;;2.10;;
9052;SDS011;4561;47.450;7.516;2024-02-21T17:47:06;4.27;;;2.03;;
9052;SDS011;4561;47.450;7.516;2024-02-21T17:50:26;7.23;;;2.10;;
9052;SDS011;4561;47.450;7.516;2024-02-21T17:53:47;3.33;;;1.50;;
9052;SDS011;4561;47.450;7.516;2024-02-21T17:57:07;4.17;;;1.50;;
9052;SDS011;4561;47.450;7.516;2024-02-21T18:00:28;3.53;;;1.47;;
9052;SDS011;4561;47.450;7.516;2024-02-21T18:03:51;2.67;;;1.50;;
9052;SDS011;4561;47.450;7.516;2024-02-21T18:07:14;2.17;;;1.43;;
9052;SDS011;4561;47.450;7.516;2024-02-21T18:10:37;4.37;;;1.20;;
9052;SDS011;4561;47.450;7.516;2024-02-21T18:13:58;5.40;;;1.20;;
9052;SDS011;4561;47.450;7.516;2024-02-21T18:17:19;1.83;;;0.80;;
9052;SDS011;4561;47.450;7.516;2024-02-21T18:20:40;1.00;;;0.70;;
9052;SDS011;4561;47.450;7.516;2024-02-21T18:24:02;2.70;;;0.90;;
9052;SDS011;4561;47.450;7.516;2024-02-21T18:27:28;1.93;;;0.90;;
9052;SDS011;4561;47.450;7.516;2024-02-21T18:30:49;1.53;;;1.10;;
9052;SDS011;4561;47.450;7.516;2024-02-21T18:34:11;3.23;;;2.23;;
9052;SDS011;4561;47.450;7.516;2024-02-21T18:37:33;1.00;;;1.00;;
9052;SDS011;4561;47.450;7.516;2024-02-21T18:40:53;3.73;;;3.33;;
9052;SDS011;4561;47.450;7.516;2024-02-21T18:44:14;1.80;;;1.60;;
9052;SDS011;4561;47.450;7.516;2024-02-21T18:47:34;0.70;;;0.67;;
9052;SDS011;4561;47.450;7.516;2024-02-21T18:50:55;2.13;;;1.10;;
9052;SDS011;4561;47.450;7.516;2024-02-21T18:54:15;1.93;;;1.10;;
9052;SDS011;4561;47.450;7.516;2024-02-21T18:57:38;2.40;;;1.13;;
9052;SDS011;4561;47.450;7.516;2024-02-21T19:00:59;1.40;;;1.20;;
9052;SDS011;4561;47.450;7.516;2024-02-21T19:04:19;1.50;;;1.10;;
9052;SDS011;4561;47.450;7.516;2024-02-21T19:07:39;1.40;;;1.30;;
9052;SDS011;4561;47.450;7.516;2024-02-21T19:11:00;1.50;;;1.20;;
9052;SDS011;4561;47.450;7.516;2024-02-21T19:14:20;1.20;;;1.00;;
9052;SDS011;4561;47.450;7.516;2024-02-21T19:17:41;1.53;;;1.00;;
9052;SDS011;4561;47.450;7.516;2024-02-21T19:21:01;2.13;;;1.40;;
9052;SDS011;4561;47.450;7.516;2024-02-21T19:24:21;3.00;;;1.20;;
9052;SDS011;4561;47.450;7.516;2024-02-21T19:27:42;3.73;;;1.20;;
9052;SDS011;4561;47.450;7.516;2024-02-21T19:31:02;9.33;;;2.60;;
9052;SDS011;4561;47.450;7.516;2024-02-21T19:34:25;3.53;;;2.10;;
9052;SDS011;4561;47.450;7.516;2024-02-21T19:37:47;9.13;;;7.13;;
9052;SDS011;4561;47.450;7.516;2024-02-21T19:41:08;7.23;;;5.17;;
9052;SDS011;4561;47.450;7.516;2024-02-21T19:44:31;4.40;;;2.00;;
9052;SDS011;4561;47.450;7.516;2024-02-21T19:47:56;1.63;;;1.53;;
9052;SDS011;4561;47.450;7.516;2024-02-21T19:51:19;1.90;;;1.40;;
9052;SDS011;4561;47.450;7.516;2024-02-21T19:54:39;1.53;;;1.43;;
9052;SDS011;4561;47.450;7.516;2024-02-21T19:58:03;3.27;;;1.33;;
9052;SDS011;4561;47.450;7.516;2024-02-21T20:01:24;1.50;;;1.40;;
9052;SDS011;4561;47.450;7.516;2024-02-21T20:04:47;1.73;;;1.10;;
9052;SDS011;4561;47.450;7.516;2024-02-21T20:08:08;2.37;;;1.23;;
9052;SDS011;4561;47.450;7.516;2024-02-21T20:11:29;2.10;;;1.10;;
9052;SDS011;4561;47.450;7.516;2024-02-21T20:14:52;1.17;;;1.00;;
9052;SDS011;4561;47.450;7.516;2024-02-21T20:18:15;3.73;;;1.00;;
9052;SDS011;4561;47.450;7.516;2024-02-21T20:21:38;1.83;;;0.97;;
9052;SDS011;4561;47.450;7.516;2024-02-21T20:25:01;1.60;;;1.00;;
9052;SDS011;4561;47.450;7.516;2024-02-21T20:28:24;1.50;;;1.20;;
9052;SDS011;4561;47.450;7.516;2024-02-21T20:31:44;1.07;;;0.87;;
9052;SDS011;4561;47.450;7.516;2024-02-21T20:35:07;1.53;;;1.00;;
9052;SDS011;4561;47.450;7.516;2024-02-21T20:38:28;2.40;;;0.90;;
9052;SDS011;4561;47.450;7.516;2024-02-21T20:41:48;1.03;;;0.80;;
9052;SDS011;4561;47.450;7.516;2024-02-21T20:45:09;1.53;;;0.80;;
9052;SDS011;4561;47.450;7.516;2024-02-21T20:48:32;1.93;;;1.00;;
9052;SDS011;4561;47.450;7.516;2024-02-21T20:51:52;2.80;;;1.00;;
9052;SDS011;4561;47.450;7.516;2024-02-21T20:55:13;1.53;;;1.10;;
9052;SDS011;4561;47.450;7.516;2024-02-21T20:58:34;3.63;;;0.97;;
9052;SDS011;4561;47.450;7.516;2024-02-21T21:01:54;1.03;;;0.70;;